createdAt,value
2023-04-23T00:01:28.320Z,4.28
2023-04-23T00:04:34.958Z,6.85
2023-04-23T00:07:38.519Z,2.58
2023-04-23T00:10:41.901Z,11.47
2023-04-23T00:13:47.625Z,3.93
2023-04-23T00:16:51.246Z,5.28
2023-04-23T00:19:55.882Z,4.88
2023-04-23T00:22:59.086Z,8.32
2023-04-23T00:26:02.064Z,4.20
2023-04-23T00:29:05.270Z,3.47
2023-04-23T00:32:08.849Z,4.55
2023-04-23T00:35:13.479Z,4.30
2023-04-23T00:38:16.689Z,5.57
2023-04-23T00:41:20.697Z,6.55
2023-04-23T00:44:24.181Z,2.90
2023-04-23T00:47:27.403Z,7.27
2023-04-23T00:50:31.782Z,8.37
2023-04-23T00:53:35.281Z,4.57
2023-04-23T00:56:38.463Z,3.43
2023-04-23T00:59:41.705Z,6.97
2023-04-23T01:02:46.039Z,10.52
2023-04-23T01:05:51.095Z,9.48
2023-04-23T01:08:54.106Z,9.75
2023-04-23T01:11:58.632Z,6.43
2023-04-23T01:15:01.673Z,2.90
2023-04-23T01:18:07.840Z,5.18
2023-04-23T01:21:13.322Z,5.35
2023-04-23T01:24:18.033Z,6.15
2023-04-23T01:27:22.446Z,3.92
2023-04-23T01:30:26.961Z,9.10
2023-04-23T01:33:30.561Z,6.03
2023-04-23T01:36:34.177Z,7.45
2023-04-23T01:39:38.809Z,5.15
2023-04-23T01:42:42.388Z,4.72
2023-04-23T01:45:45.675Z,8.15
2023-04-23T01:48:48.940Z,6.20
2023-04-23T01:52:12.474Z,7.45
2023-04-23T01:55:15.680Z,6.78
2023-04-23T01:58:19.411Z,4.20
2023-04-23T02:01:22.450Z,13.00
2023-04-23T02:04:25.755Z,5.40
2023-04-23T02:07:30.168Z,9.38
2023-04-23T02:10:33.382Z,5.22
2023-04-23T02:13:36.557Z,5.70
2023-04-23T02:16:40.084Z,7.47
2023-04-23T02:19:43.073Z,5.27
2023-04-23T02:22:48.306Z,5.32
2023-04-23T02:25:52.374Z,4.80
2023-04-23T02:29:11.672Z,4.63
2023-04-23T02:32:14.690Z,6.35
2023-04-23T02:35:17.875Z,6.85
2023-04-23T02:38:20.914Z,7.82
2023-04-23T02:41:23.965Z,8.10
2023-04-23T02:44:28.374Z,4.63
2023-04-23T02:47:31.409Z,9.05
2023-04-23T02:50:35.065Z,5.35
2023-04-23T02:53:38.423Z,8.85
2023-04-23T02:56:41.774Z,7.40
2023-04-23T02:59:46.522Z,8.73
2023-04-23T03:02:49.729Z,7.03
2023-04-23T03:06:11.926Z,10.45
2023-04-23T03:09:15.159Z,5.53
2023-04-23T03:12:18.189Z,10.48
2023-04-23T03:15:21.305Z,6.32
2023-04-23T03:18:24.405Z,6.82
2023-04-23T03:21:28.788Z,6.53
2023-04-23T03:24:32.613Z,8.25
2023-04-23T03:27:35.606Z,7.00
2023-04-23T03:30:38.890Z,4.78
2023-04-23T03:33:42.145Z,13.00
2023-04-23T03:36:48.662Z,6.18
2023-04-23T03:39:51.886Z,5.45
2023-04-23T03:42:54.854Z,7.57
2023-04-23T03:45:57.936Z,10.32
2023-04-23T03:49:01.170Z,7.70
2023-04-23T03:52:06.094Z,8.05
2023-04-23T03:55:10.377Z,7.60
2023-04-23T04:01:16.644Z,6.93
2023-04-23T04:04:19.828Z,6.60
2023-04-23T04:07:24.444Z,7.40
2023-04-23T04:10:27.442Z,8.52
2023-04-23T04:13:30.400Z,9.75
2023-04-23T04:16:33.483Z,7.65
2023-04-23T04:19:36.656Z,8.32
2023-04-23T04:22:41.007Z,7.28
2023-04-23T04:25:45.729Z,10.07
2023-04-23T04:28:48.809Z,8.73
2023-04-23T04:31:51.983Z,7.13
2023-04-23T04:34:55.301Z,7.30
2023-04-23T04:37:59.920Z,7.53
2023-04-23T04:41:03.128Z,10.32
2023-04-23T04:44:07.366Z,9.25
2023-04-23T04:50:13.912Z,10.30
2023-04-23T04:53:18.152Z,8.57
2023-04-23T04:59:27.156Z,7.45
2023-04-23T05:02:30.395Z,10.60
2023-04-23T05:05:34.333Z,7.17
2023-04-23T05:08:39.061Z,11.18
2023-04-23T05:11:42.223Z,7.75
2023-04-23T05:14:45.417Z,7.30
2023-04-23T05:17:50.262Z,8.80
2023-04-23T05:21:12.029Z,7.32
2023-04-23T05:24:14.974Z,7.13
2023-04-23T05:27:17.919Z,8.10
2023-04-23T05:30:21.075Z,8.82
2023-04-23T05:33:24.957Z,7.88
2023-04-23T05:36:31.639Z,8.75
2023-04-23T05:39:34.621Z,8.50
2023-04-23T05:42:38.445Z,12.90
2023-04-23T05:45:41.979Z,7.68
2023-04-23T05:48:44.965Z,8.98
2023-04-23T05:51:49.605Z,6.47
2023-04-23T05:54:52.662Z,7.57
2023-04-23T05:57:55.628Z,8.32
2023-04-23T06:00:58.902Z,10.00
2023-04-23T06:04:02.068Z,12.68
2023-04-23T06:07:07.158Z,11.53
2023-04-23T06:10:10.862Z,6.53
2023-04-23T06:13:13.841Z,7.32
2023-04-23T06:16:16.919Z,7.93
2023-04-23T06:19:19.982Z,6.93
2023-04-23T06:22:24.341Z,8.20
2023-04-23T06:25:27.420Z,7.40
2023-04-23T06:28:30.523Z,9.55
2023-04-23T06:31:33.550Z,8.30
2023-04-23T06:34:38.605Z,6.65
2023-04-23T06:37:46.485Z,6.28
2023-04-23T06:40:49.685Z,9.43
2023-04-23T06:43:52.647Z,7.28
2023-04-23T06:46:55.786Z,13.90
2023-04-23T06:49:59.645Z,11.00
2023-04-23T06:53:04.407Z,8.93
2023-04-23T06:56:07.793Z,7.88
2023-04-23T06:59:10.990Z,7.97
2023-04-23T07:02:14.171Z,12.50
2023-04-23T07:05:17.571Z,8.88
2023-04-23T07:08:22.426Z,12.03
2023-04-23T07:11:26.146Z,12.13
2023-04-23T07:14:29.192Z,9.10
2023-04-23T07:17:32.285Z,14.15
2023-04-23T07:20:35.411Z,9.68
2023-04-23T07:23:39.974Z,6.80
2023-04-23T07:26:43.123Z,13.40
2023-04-23T07:29:46.290Z,11.30
2023-04-23T07:32:49.350Z,8.75
2023-04-23T07:35:52.613Z,10.13
2023-04-23T07:38:57.009Z,10.13
2023-04-23T07:42:00.227Z,8.73
2023-04-23T07:45:03.302Z,10.98
2023-04-23T07:48:06.692Z,10.88
2023-04-23T07:51:10.045Z,11.10
2023-04-23T07:54:14.514Z,15.00
2023-04-23T07:57:17.464Z,14.15
2023-04-23T08:00:20.608Z,8.93
2023-04-23T08:03:25.296Z,12.50
2023-04-23T08:06:30.129Z,13.15
2023-04-23T08:09:34.522Z,12.25
2023-04-23T08:12:37.889Z,13.57
2023-04-23T08:15:40.986Z,14.60
2023-04-23T08:18:48.436Z,16.38
2023-04-23T08:22:01.177Z,19.30
2023-04-23T08:25:06.638Z,16.70
2023-04-23T08:28:09.635Z,14.93
2023-04-23T08:31:25.811Z,17.00
2023-04-23T08:34:29.787Z,14.65
2023-04-23T08:37:32.779Z,19.20
2023-04-23T08:40:39.033Z,15.10
2023-04-23T08:43:45.792Z,14.68
2023-04-23T08:46:49.415Z,13.75
2023-04-23T08:49:55.659Z,13.57
2023-04-23T08:52:59.374Z,16.05
2023-04-23T08:56:04.600Z,15.07
2023-04-23T08:59:07.889Z,14.90
2023-04-23T09:02:11.512Z,13.60
2023-04-23T09:05:15.410Z,15.48
2023-04-23T09:08:18.613Z,15.15
2023-04-23T09:11:25.190Z,17.17
2023-04-23T09:14:28.444Z,17.38
2023-04-23T09:17:33.955Z,14.45
2023-04-23T09:20:37.306Z,14.55
2023-04-23T09:23:41.336Z,14.80
2023-04-23T09:26:50.055Z,9.98
2023-04-23T09:29:57.440Z,12.60
2023-04-23T09:33:00.775Z,8.90
2023-04-23T09:36:06.942Z,10.47
2023-04-23T09:39:13.685Z,11.25
2023-04-23T09:42:18.113Z,8.00
2023-04-23T09:45:21.497Z,8.25
2023-04-23T09:48:24.921Z,7.83
2023-04-23T09:51:29.139Z,6.90
2023-04-23T09:57:38.708Z,5.90
2023-04-23T10:00:43.016Z,5.35
2023-04-23T10:03:46.504Z,3.88
2023-04-23T10:07:02.349Z,4.50
2023-04-23T10:10:13.119Z,4.88
2023-04-23T10:13:16.383Z,7.85
2023-04-23T10:16:24.395Z,9.48
2023-04-23T10:19:33.443Z,5.63
2023-04-23T10:22:38.788Z,5.35
2023-04-23T10:25:44.222Z,6.80
2023-04-23T10:28:49.263Z,7.50
2023-04-23T10:31:54.358Z,5.60
2023-04-23T10:34:57.555Z,4.55
2023-04-23T10:38:00.640Z,4.95
2023-04-23T10:41:05.807Z,5.35
2023-04-23T10:44:15.329Z,9.82
2023-04-23T10:47:20.632Z,7.40
2023-04-23T10:50:26.169Z,4.50
2023-04-23T10:53:33.113Z,4.18
2023-04-23T10:56:39.314Z,4.80
2023-04-23T10:59:52.910Z,5.57
2023-04-23T11:02:56.755Z,5.27
2023-04-23T11:06:02.888Z,6.28
2023-04-23T11:09:46.561Z,5.45
2023-04-23T11:12:50.971Z,5.25
2023-04-23T11:16:16.506Z,5.25
2023-04-23T11:19:20.748Z,4.85
2023-04-23T11:25:28.698Z,4.28
2023-04-23T11:28:36.263Z,4.40
2023-04-23T11:31:44.849Z,7.53
2023-04-23T11:37:57.624Z,4.75
2023-04-23T11:41:03.187Z,6.00
2023-04-23T11:44:08.442Z,4.22
2023-04-23T11:47:14.775Z,5.90
2023-04-23T11:50:19.123Z,7.78
2023-04-23T11:53:23.692Z,4.47
2023-04-23T11:56:30.948Z,9.18
2023-04-23T11:59:35.379Z,5.57
2023-04-23T12:02:38.534Z,4.85
2023-04-23T12:05:43.561Z,7.33
2023-04-23T12:08:47.946Z,3.63
2023-04-23T12:11:52.079Z,4.57
2023-04-23T12:15:13.839Z,3.67
2023-04-23T12:18:17.154Z,4.72
2023-04-23T12:21:20.180Z,6.50
2023-04-23T12:24:24.161Z,3.75
2023-04-23T12:27:28.300Z,5.15
2023-04-23T12:33:36.615Z,4.85
2023-04-23T12:36:40.926Z,6.53
2023-04-23T12:39:44.264Z,5.78
2023-04-23T12:42:47.288Z,5.07
2023-04-23T12:45:52.084Z,5.22
2023-04-23T12:49:12.667Z,5.53
2023-04-23T12:52:15.964Z,6.45
2023-04-23T12:55:18.954Z,4.73
2023-04-23T12:58:21.985Z,5.22
2023-04-23T13:01:24.938Z,4.90
2023-04-23T13:04:29.720Z,4.75
2023-04-23T13:07:33.418Z,9.15
2023-04-23T13:10:36.439Z,5.05
2023-04-23T13:13:39.347Z,5.40
2023-04-23T13:16:42.505Z,7.13
2023-04-23T13:19:46.948Z,8.55
2023-04-23T13:22:50.161Z,8.20
2023-04-23T13:26:13.119Z,6.32
2023-04-23T13:29:16.380Z,4.78
2023-04-23T13:32:22.033Z,5.13
2023-04-23T13:35:25.643Z,7.75
2023-04-23T13:38:28.746Z,7.25
2023-04-23T13:41:33.036Z,5.70
2023-04-23T13:44:36.071Z,6.65
2023-04-23T13:47:39.033Z,6.93
2023-04-23T13:50:42.204Z,5.97
2023-04-23T13:53:45.344Z,7.72
2023-04-23T13:56:49.641Z,6.18
2023-04-23T13:59:55.119Z,4.38
2023-04-23T14:02:58.190Z,8.93
2023-04-23T14:06:02.355Z,7.50
2023-04-23T14:12:09.938Z,7.00
2023-04-23T14:15:13.141Z,9.68
2023-04-23T14:18:16.134Z,7.00
2023-04-23T14:21:19.190Z,8.23
2023-04-23T14:24:24.531Z,5.78
2023-04-23T14:27:29.135Z,11.00
2023-04-23T14:30:33.090Z,10.77
2023-04-23T14:33:36.042Z,8.77
2023-04-23T14:36:39.186Z,12.02
2023-04-23T14:39:42.401Z,10.27
2023-04-23T14:42:47.187Z,8.87
2023-04-23T14:45:50.939Z,8.57
2023-04-23T14:49:13.309Z,6.72
2023-04-23T14:52:16.350Z,11.55
2023-04-23T14:55:19.388Z,7.85
2023-04-23T14:58:22.434Z,9.93
2023-04-23T15:01:25.944Z,8.93
2023-04-23T15:04:30.431Z,7.30
2023-04-23T15:07:33.992Z,7.68
2023-04-23T15:10:37.652Z,7.53
2023-04-23T15:13:49.671Z,7.80
2023-04-23T15:16:53.258Z,8.02
2023-04-23T15:20:00.197Z,7.28
2023-04-23T15:23:03.220Z,8.63
2023-04-23T15:26:06.492Z,6.53
2023-04-23T15:29:10.261Z,6.33
2023-04-23T15:32:13.417Z,7.13
2023-04-23T15:35:17.844Z,7.28
2023-04-23T15:38:20.861Z,6.75
2023-04-23T15:41:23.892Z,8.52
2023-04-23T15:44:26.918Z,10.15
2023-04-23T15:47:29.978Z,8.38
2023-04-23T15:50:34.737Z,9.65
2023-04-23T15:53:37.779Z,7.93
2023-04-23T15:56:40.878Z,6.90
2023-04-23T15:59:44.430Z,8.80
2023-04-23T16:02:47.629Z,9.40
2023-04-23T16:05:52.245Z,6.78
2023-04-23T16:09:13.973Z,8.52
2023-04-23T16:12:17.021Z,8.10
2023-04-23T16:15:20.131Z,7.93
2023-04-23T16:18:23.159Z,7.88
2023-04-23T16:21:27.866Z,7.20
2023-04-23T16:24:32.450Z,8.13
2023-04-23T16:27:35.554Z,9.15
2023-04-23T16:30:38.914Z,10.40
2023-04-23T16:33:41.895Z,8.43
2023-04-23T16:36:45.025Z,6.55
2023-04-23T16:39:49.730Z,7.20
2023-04-23T16:42:52.944Z,8.30
2023-04-23T16:45:56.116Z,7.05
2023-04-23T16:48:59.170Z,6.10
2023-04-23T16:52:03.636Z,5.88
2023-04-23T16:55:09.429Z,5.53
2023-04-23T16:58:14.604Z,9.40
2023-04-23T17:01:18.540Z,6.13
2023-04-23T17:04:21.829Z,7.22
2023-04-23T17:07:24.990Z,5.57
2023-04-23T17:10:29.541Z,5.50
2023-04-23T17:13:32.642Z,6.50
2023-04-23T17:16:35.985Z,10.25
2023-04-23T17:19:39.695Z,8.53
2023-04-23T17:22:42.710Z,6.45
2023-04-23T17:25:47.363Z,8.10
2023-04-23T17:28:50.654Z,6.90
2023-04-23T17:31:53.990Z,7.43
2023-04-23T17:35:08.762Z,7.97
2023-04-23T17:38:12.925Z,5.63
2023-04-23T17:41:19.091Z,7.03
2023-04-23T17:44:22.147Z,9.30
2023-04-23T17:47:26.115Z,9.05
2023-04-23T17:50:29.949Z,6.15
2023-04-23T17:53:32.902Z,6.95
2023-04-23T17:56:37.280Z,7.43
2023-04-23T17:59:40.583Z,7.35
2023-04-23T18:02:43.930Z,8.93
2023-04-23T18:05:47.068Z,7.30
2023-04-23T18:08:50.102Z,10.50
2023-04-23T18:11:56.117Z,9.73
2023-04-23T18:14:59.427Z,6.03
2023-04-23T18:18:03.054Z,7.50
2023-04-23T18:21:06.138Z,8.15
2023-04-23T18:24:09.199Z,7.28
2023-04-23T18:27:13.785Z,7.68
2023-04-23T18:30:17.672Z,9.85
2023-04-23T18:33:33.551Z,10.95
2023-04-23T18:36:42.686Z,11.88
2023-04-23T18:39:45.707Z,12.02
2023-04-23T18:42:49.992Z,7.97
2023-04-23T18:49:00.390Z,9.20
2023-04-23T18:52:03.450Z,7.90
2023-04-23T18:55:07.074Z,7.45
2023-04-23T18:58:12.394Z,7.53
2023-04-23T19:01:15.735Z,9.45
2023-04-23T19:04:19.094Z,7.50
2023-04-23T19:07:22.186Z,7.37
2023-04-23T19:10:25.721Z,7.75
2023-04-23T19:13:30.083Z,12.60
2023-04-23T19:16:33.167Z,6.40
2023-04-23T19:19:36.275Z,7.75
2023-04-23T19:22:41.878Z,5.97
2023-04-23T19:25:45.649Z,7.82
2023-04-23T19:28:50.093Z,8.17
2023-04-23T19:31:53.510Z,10.65
2023-04-23T19:34:56.664Z,8.70
2023-04-23T19:37:59.741Z,12.70
2023-04-23T19:41:03.143Z,9.75
2023-04-23T19:44:07.409Z,9.50
2023-04-23T19:50:13.769Z,8.80
2023-04-23T19:53:16.935Z,8.20
2023-04-23T19:56:22.817Z,7.25
2023-04-23T19:59:27.320Z,7.10
2023-04-23T20:02:30.386Z,10.70
2023-04-23T20:05:33.696Z,7.30
2023-04-23T20:08:42.424Z,9.48
2023-04-23T20:11:46.013Z,6.88
2023-04-23T20:14:50.384Z,10.75
2023-04-23T20:17:53.796Z,9.38
2023-04-23T20:20:56.810Z,11.70
2023-04-23T20:23:59.719Z,10.85
2023-04-23T20:27:02.887Z,8.82
2023-04-23T20:30:11.543Z,11.48
2023-04-23T20:33:16.060Z,12.30
2023-04-23T20:36:19.922Z,10.35
2023-04-23T20:39:24.204Z,10.07
2023-04-23T20:42:28.890Z,9.05
2023-04-23T20:45:34.437Z,8.75
2023-04-23T20:48:37.743Z,9.75
2023-04-23T20:51:41.135Z,10.67
2023-04-23T20:54:44.193Z,8.73
2023-04-23T20:57:47.205Z,11.70
2023-04-23T21:00:51.986Z,11.10
2023-04-23T21:03:55.606Z,14.20
2023-04-23T21:06:59.195Z,10.23
2023-04-23T21:10:02.258Z,11.88
2023-04-23T21:13:06.472Z,10.30
2023-04-23T21:19:14.421Z,12.65
2023-04-23T21:22:17.881Z,12.05
2023-04-23T21:25:20.916Z,13.97
2023-04-23T21:28:24.265Z,12.43
2023-04-23T21:31:38.449Z,12.53
2023-04-23T21:34:41.530Z,17.48
2023-04-23T21:37:44.652Z,11.75
2023-04-23T21:40:48.010Z,14.63
2023-04-23T21:43:50.980Z,12.70
2023-04-23T21:47:13.878Z,12.73
2023-04-23T21:50:17.343Z,11.13
2023-04-23T21:53:21.362Z,14.00
2023-04-23T21:56:24.786Z,15.70
2023-04-23T21:59:27.846Z,12.20
2023-04-23T22:02:32.467Z,18.63
2023-04-23T22:05:36.917Z,12.93
2023-04-23T22:08:40.531Z,11.18
2023-04-23T22:11:51.963Z,13.20
2023-04-23T22:15:05.120Z,14.20
2023-04-23T22:18:09.517Z,13.40
2023-04-23T22:21:13.165Z,10.68
2023-04-23T22:24:16.503Z,11.98
2023-04-23T22:27:19.521Z,12.43
2023-04-23T22:30:22.609Z,13.85
2023-04-23T22:33:28.403Z,17.02
2023-04-23T22:36:32.562Z,17.40
2023-04-23T22:39:35.685Z,16.90
2023-04-23T22:42:38.690Z,18.60
2023-04-23T22:45:41.786Z,20.80
2023-04-23T22:48:47.922Z,22.55
2023-04-23T22:51:51.121Z,21.65
2023-04-23T22:55:13.902Z,22.98
2023-04-23T22:58:17.165Z,19.13
2023-04-23T23:01:20.924Z,16.73
2023-04-23T23:04:24.016Z,14.65
2023-04-23T23:07:27.057Z,18.33
2023-04-23T23:10:31.663Z,17.33
2023-04-23T23:13:34.883Z,17.38
2023-04-23T23:16:37.859Z,17.52
2023-04-23T23:19:41.232Z,15.77
2023-04-23T23:22:44.663Z,15.25
2023-04-23T23:25:49.044Z,17.90
2023-04-23T23:28:52.095Z,18.17
2023-04-23T23:32:13.876Z,15.82
2023-04-23T23:39:18.865Z,15.57
2023-04-23T23:42:22.119Z,15.23
2023-04-23T23:45:25.179Z,17.50
2023-04-23T23:48:29.612Z,15.57
2023-04-23T23:51:32.901Z,13.75
2023-04-23T23:54:37.252Z,17.88
2023-04-23T23:57:41.120Z,16.38
